Leek, United Kingdom
Current Conditions -  °F | °C
As of 1:20 AM on Saturday 29 Nov 2014 (Local Time) from EGCC Reporting Station
Light Rain Light Rain  
Wind Chill: 50°   Ceiling: Unl
Heat Index: 50°   Visibility: 4mi
Dew Point: 48°   Wind: 9mph
Humidity: 94%   Direction: 100°E
Pressure: 29.8"   Gusts: NA
Location:  53.1°N, 2.02°W
Report Text: EGCC 290120Z 10008KT 7000 -RA FEW033 10/09 Q1009
Loading
Personal Weather Stations






























Interactive Weather Map New forecast layout! Learn more

10-Day Weather Forecast

Advertisements
Track Severe Weather on mobile